createdAt,value
2022-09-28T00:00:28.968Z,98390.31
2022-09-28T00:01:15.528Z,98394.97
2022-09-28T00:01:47.426Z,98391.75
2022-09-28T00:02:19.478Z,98394.97
2022-09-28T00:02:52.572Z,98395.41
2022-09-28T00:03:24.471Z,98399.28
2022-09-28T00:03:59.940Z,98399.53
2022-09-28T00:04:33.483Z,98401.91
2022-09-28T00:05:05.655Z,98395.91
2022-09-28T00:05:37.516Z,98398.50
2022-09-28T00:06:12.731Z,98400.69
2022-09-28T00:06:44.612Z,98396.38
2022-09-28T00:07:16.419Z,98398.94
2022-09-28T00:07:48.452Z,98399.28
2022-09-28T00:08:20.295Z,98394.34
2022-09-28T00:08:52.900Z,98402.75
2022-09-28T00:09:24.805Z,98403.09
2022-09-28T00:09:56.681Z,98395.78
2022-09-28T00:10:28.542Z,98398.69
2022-09-28T00:11:01.081Z,98397.19
2022-09-28T00:11:33.871Z,98395.25
2022-09-28T00:12:06.713Z,98396.75
2022-09-28T00:12:39.030Z,98393.91
2022-09-28T00:13:10.839Z,98397.25
2022-09-28T00:13:43.875Z,98394.38
2022-09-28T00:14:15.737Z,98397.75
2022-09-28T00:14:47.572Z,98397.16
2022-09-28T00:15:20.031Z,98400.72
2022-09-28T00:16:05.161Z,98396.38
2022-09-28T00:16:43.500Z,98396.03
2022-09-28T00:17:17.100Z,98395.81
2022-09-28T00:17:48.954Z,98399.44
2022-09-28T00:18:20.771Z,98396.38
2022-09-28T00:18:54.123Z,98398.16
2022-09-28T00:19:25.940Z,98387.25
2022-09-28T00:19:58.075Z,98391.91
2022-09-28T00:20:29.964Z,98390.31
2022-09-28T00:21:04.733Z,98386.75
2022-09-28T00:21:39.801Z,98386.63
2022-09-28T00:22:11.908Z,98383.59
2022-09-28T00:22:43.890Z,98384.87
2022-09-28T00:23:15.732Z,98380.06
2022-09-28T00:24:06.292Z,98386.56
2022-09-28T00:24:38.239Z,98383.84
2022-09-28T00:25:10.066Z,98377.47
2022-09-28T00:25:41.864Z,98380.63
2022-09-28T00:26:13.643Z,98371.75
2022-09-28T00:26:56.586Z,98372.25
2022-09-28T00:27:29.083Z,98374.06
2022-09-28T00:28:01.430Z,98373.34
2022-09-28T00:28:33.324Z,98380.75
2022-09-28T00:29:05.226Z,98382.16
2022-09-28T00:29:38.117Z,98384.81
2022-09-28T00:30:10.319Z,98377.22
2022-09-28T00:30:42.257Z,98376.00
2022-09-28T00:31:14.151Z,98373.69
2022-09-28T00:31:46.525Z,98372.31
2022-09-28T00:32:18.908Z,98379.66
2022-09-28T00:32:51.806Z,98382.12
2022-09-28T00:33:23.876Z,98376.97
2022-09-28T00:33:56.996Z,98377.91
2022-09-28T00:34:31.965Z,98373.47
2022-09-28T00:35:03.940Z,98374.53
2022-09-28T00:35:35.782Z,98377.25
2022-09-28T00:36:08.026Z,98386.50
2022-09-28T00:36:43.149Z,98382.53
2022-09-28T00:37:15.471Z,98387.13
2022-09-28T00:37:49.013Z,98392.34
2022-09-28T00:38:21.169Z,98383.25
2022-09-28T00:38:53.284Z,98384.94
2022-09-28T00:39:27.038Z,98386.88
2022-09-28T00:39:59.094Z,98389.47
2022-09-28T00:40:31.073Z,98389.97
2022-09-28T00:41:02.945Z,98380.63
2022-09-28T00:41:35.844Z,98384.03
2022-09-28T00:42:17.846Z,98384.56
2022-09-28T00:42:49.697Z,98383.50
2022-09-28T00:43:23.561Z,98378.44
2022-09-28T00:44:24.396Z,98380.44
2022-09-28T00:44:57.542Z,98375.63
2022-09-28T00:45:29.494Z,98374.62
2022-09-28T00:46:10.381Z,98381.12
2022-09-28T00:46:42.288Z,98379.66
2022-09-28T00:47:25.641Z,98382.69
2022-09-28T00:48:00.320Z,98368.09
2022-09-28T00:48:35.569Z,98364.00
2022-09-28T00:49:15.839Z,98380.72
2022-09-28T00:49:56.839Z,98377.81
2022-09-28T00:50:36.187Z,98383.72
2022-09-28T00:51:12.617Z,98387.69
2022-09-28T00:51:46.009Z,98380.84
2022-09-28T00:52:41.177Z,98385.06
2022-09-28T00:53:18.353Z,98382.81
2022-09-28T00:53:51.653Z,98387.00
2022-09-28T00:54:23.598Z,98385.75
2022-09-28T00:54:58.120Z,98392.03
2022-09-28T00:55:48.384Z,98380.75
2022-09-28T00:56:24.484Z,98384.69
2022-09-28T00:56:57.750Z,98384.59
2022-09-28T00:57:30.797Z,98387.13
2022-09-28T00:58:05.330Z,98378.03
2022-09-28T00:58:43.963Z,98381.28
2022-09-28T00:59:16.569Z,98383.81
2022-09-28T00:59:49.649Z,98381.44
2022-09-28T01:00:21.990Z,98388.25
2022-09-28T01:00:56.834Z,98383.50
2022-09-28T01:01:29.134Z,98381.12
2022-09-28T01:02:02.300Z,98389.19
2022-09-28T01:02:34.382Z,98390.59
2022-09-28T01:03:07.483Z,98387.28
2022-09-28T01:03:45.443Z,98392.03
2022-09-28T01:04:18.317Z,98395.75
2022-09-28T01:04:51.478Z,98395.03
2022-09-28T01:05:24.556Z,98396.00
2022-09-28T01:05:59.100Z,98389.50
2022-09-28T01:06:34.406Z,98392.91
2022-09-28T01:07:08.935Z,98388.72
2022-09-28T01:07:42.721Z,98391.41
2022-09-28T01:08:16.838Z,98384.59
2022-09-28T01:08:53.682Z,98394.09
2022-09-28T01:09:27.747Z,98392.78
2022-09-28T01:09:59.943Z,98396.50
2022-09-28T01:10:33.634Z,98387.06
2022-09-28T01:11:05.788Z,98393.69
2022-09-28T01:11:39.420Z,98405.81
2022-09-28T01:12:12.061Z,98402.72
2022-09-28T01:12:43.943Z,98400.66
2022-09-28T01:13:18.812Z,98403.78
2022-09-28T01:13:54.313Z,98406.06
2022-09-28T01:14:26.979Z,98403.78
2022-09-28T01:15:00.481Z,98403.78
2022-09-28T01:15:44.653Z,98403.50
2022-09-28T01:16:20.596Z,98402.72
2022-09-28T01:17:30.588Z,98404.62
2022-09-28T01:18:19.695Z,98400.13
2022-09-28T01:19:29.136Z,98398.41
2022-09-28T01:20:26.901Z,98393.72
2022-09-28T01:21:16.454Z,98403.34
2022-09-28T01:21:59.752Z,98401.78
2022-09-28T01:22:34.166Z,98403.91
2022-09-28T01:23:48.717Z,98406.44
2022-09-28T01:24:32.753Z,98401.72
2022-09-28T01:25:12.188Z,98398.84
2022-09-28T01:26:11.994Z,98403.50
2022-09-28T01:27:05.928Z,98400.28
2022-09-28T01:27:52.099Z,98402.16
2022-09-28T01:28:28.086Z,98396.00
2022-09-28T01:29:08.135Z,98400.25
2022-09-28T01:30:02.599Z,98401.28
2022-09-28T01:30:46.097Z,98405.25
2022-09-28T01:31:20.573Z,98407.06
2022-09-28T01:32:11.385Z,98408.63
2022-09-28T01:32:45.954Z,98408.06
2022-09-28T01:33:26.479Z,98412.28
2022-09-28T01:34:04.989Z,98411.34
2022-09-28T01:34:55.550Z,98407.81
2022-09-28T01:35:35.510Z,98412.44
2022-09-28T01:36:28.145Z,98406.75
2022-09-28T01:37:04.599Z,98404.62
2022-09-28T01:38:07.476Z,98406.72
2022-09-28T01:38:50.889Z,98410.19
2022-09-28T01:39:31.363Z,98403.50
2022-09-28T01:40:06.469Z,98403.75
2022-09-28T01:40:39.539Z,98399.78
2022-09-28T01:41:13.145Z,98408.19
2022-09-28T01:41:50.116Z,98405.94
2022-09-28T01:42:30.016Z,98400.34
2022-09-28T01:43:28.994Z,98407.84
2022-09-28T01:44:03.018Z,98410.94
2022-09-28T01:44:40.457Z,98408.56
2022-09-28T01:45:22.734Z,98412.84
2022-09-28T01:46:01.944Z,98408.19
2022-09-28T01:46:39.485Z,98411.97
2022-09-28T01:47:15.319Z,98417.66
2022-09-28T01:47:49.291Z,98415.22
2022-09-28T01:48:32.413Z,98418.13
2022-09-28T01:49:16.266Z,98413.03
2022-09-28T01:49:59.416Z,98411.97
2022-09-28T01:50:40.272Z,98408.63
2022-09-28T01:51:20.032Z,98412.50
2022-09-28T01:52:04.864Z,98411.47
2022-09-28T01:52:45.515Z,98421.28
2022-09-28T01:53:23.173Z,98423.41
2022-09-28T01:54:01.044Z,98422.94
2022-09-28T01:54:37.774Z,98421.78
2022-09-28T01:55:17.195Z,98425.50
2022-09-28T01:56:04.031Z,98422.06
2022-09-28T01:56:43.316Z,98425.56
2022-09-28T01:57:42.304Z,98424.53
2022-09-28T01:58:30.269Z,98433.13
2022-09-28T01:59:22.471Z,98430.56
2022-09-28T02:00:10.783Z,98427.62
2022-09-28T02:00:52.439Z,98428.41
2022-09-28T02:01:30.379Z,98441.69
2022-09-28T02:02:07.103Z,98438.63
2022-09-28T02:02:45.061Z,98439.75
2022-09-28T02:03:25.780Z,98437.72
2022-09-28T02:04:28.549Z,98437.09
2022-09-28T02:05:08.304Z,98438.69
2022-09-28T02:05:44.097Z,98436.53
2022-09-28T02:06:26.511Z,98442.66
2022-09-28T02:07:04.114Z,98436.34
2022-09-28T02:07:49.897Z,98430.31
2022-09-28T02:08:28.441Z,98431.19
2022-09-28T02:09:07.674Z,98434.09
2022-09-28T02:09:47.163Z,98436.66
2022-09-28T02:10:24.728Z,98429.69
2022-09-28T02:11:05.781Z,98425.50
2022-09-28T02:11:41.541Z,98432.06
2022-09-28T02:12:20.227Z,98433.72
2022-09-28T02:13:02.988Z,98431.13
2022-09-28T02:13:42.753Z,98431.56
2022-09-28T02:14:17.247Z,98435.88
2022-09-28T02:14:52.690Z,98438.78
2022-09-28T02:15:37.264Z,98435.53
2022-09-28T02:16:09.217Z,98437.72
2022-09-28T02:16:43.293Z,98435.81
2022-09-28T02:17:16.239Z,98436.63
2022-09-28T02:17:52.218Z,98443.41
2022-09-28T02:18:24.748Z,98442.94
2022-09-28T02:18:58.257Z,98435.66
2022-09-28T02:19:32.228Z,98437.84
2022-09-28T02:20:04.813Z,98435.22
2022-09-28T02:20:40.615Z,98439.66
2022-09-28T02:21:17.754Z,98431.22
2022-09-28T02:22:27.293Z,98439.88
2022-09-28T02:23:02.164Z,98441.78
2022-09-28T02:23:38.094Z,98439.44
2022-09-28T02:24:21.198Z,98432.38
2022-09-28T02:25:07.906Z,98439.16
2022-09-28T02:25:50.369Z,98429.03
2022-09-28T02:26:27.291Z,98432.38
2022-09-28T02:27:03.358Z,98436.38
2022-09-28T02:27:49.312Z,98437.94
2022-09-28T02:28:21.465Z,98435.09
2022-09-28T02:28:54.901Z,98437.16
2022-09-28T02:29:26.775Z,98439.06
2022-09-28T02:29:58.791Z,98438.56
2022-09-28T02:30:32.515Z,98447.50
2022-09-28T02:31:04.452Z,98433.66
2022-09-28T02:31:36.482Z,98433.94
2022-09-28T02:32:08.613Z,98436.50
2022-09-28T02:32:44.898Z,98438.06
2022-09-28T02:33:23.226Z,98437.34
2022-09-28T02:33:57.337Z,98438.69
2022-09-28T02:34:29.281Z,98453.56
2022-09-28T02:35:01.724Z,98440.72
2022-09-28T02:35:35.438Z,98446.50
2022-09-28T02:36:08.344Z,98447.50
2022-09-28T02:36:41.977Z,98450.16
2022-09-28T02:37:14.245Z,98452.28
2022-09-28T02:37:47.187Z,98455.94
2022-09-28T02:38:19.155Z,98453.28
2022-09-28T02:38:52.064Z,98454.22
2022-09-28T02:39:24.115Z,98451.44
2022-09-28T02:39:56.112Z,98449.56
2022-09-28T02:40:37.889Z,98447.66
2022-09-28T02:41:35.308Z,98456.59
2022-09-28T02:42:09.768Z,98444.94
2022-09-28T02:42:56.663Z,98448.94
2022-09-28T02:43:59.012Z,98447.78
2022-09-28T02:45:13.164Z,98452.88
2022-09-28T02:45:49.779Z,98449.88
2022-09-28T02:46:40.520Z,98450.69
2022-09-28T02:47:29.135Z,98451.94
2022-09-28T02:48:41.542Z,98451.63
2022-09-28T02:49:42.386Z,98463.25
2022-09-28T02:50:44.854Z,98452.44
2022-09-28T02:51:30.955Z,98452.03
2022-09-28T02:52:35.004Z,98450.81
2022-09-28T02:53:32.809Z,98445.47
2022-09-28T02:54:23.429Z,98445.31
2022-09-28T02:55:25.266Z,98448.63
2022-09-28T02:56:11.251Z,98448.56
2022-09-28T02:57:05.006Z,98447.72
2022-09-28T02:57:45.886Z,98439.81
2022-09-28T02:58:26.768Z,98434.59
2022-09-28T02:59:17.163Z,98434.28
2022-09-28T03:00:00.356Z,98445.34
2022-09-28T03:00:44.916Z,98437.56
2022-09-28T03:01:31.685Z,98440.13
2022-09-28T03:02:13.944Z,98439.47
2022-09-28T03:02:48.480Z,98438.97
2022-09-28T03:03:45.818Z,98431.19
2022-09-28T03:04:39.662Z,98431.13
2022-09-28T03:05:15.673Z,98433.16
2022-09-28T03:06:00.429Z,98432.00
2022-09-28T03:06:48.670Z,98441.16
2022-09-28T03:07:29.997Z,98432.22
2022-09-28T03:08:33.860Z,98436.97
2022-09-28T03:09:29.198Z,98429.91
2022-09-28T03:10:10.923Z,98433.94
2022-09-28T03:11:08.770Z,98436.19
2022-09-28T03:11:47.659Z,98433.78
2022-09-28T03:12:20.834Z,98431.19
2022-09-28T03:12:54.744Z,98432.53
2022-09-28T03:13:28.452Z,98430.00
2022-09-28T03:14:01.692Z,98435.88
2022-09-28T03:14:35.481Z,98431.44
2022-09-28T03:15:19.227Z,98430.00
2022-09-28T03:15:51.365Z,98434.72
2022-09-28T03:16:23.629Z,98445.19
2022-09-28T03:16:55.815Z,98448.94
2022-09-28T03:17:27.712Z,98447.88
2022-09-28T03:18:00.512Z,98455.72
2022-09-28T03:18:32.458Z,98458.31
2022-09-28T03:19:04.299Z,98457.66
2022-09-28T03:19:37.216Z,98453.91
2022-09-28T03:20:10.504Z,98458.31
2022-09-28T03:20:42.568Z,98453.09
2022-09-28T03:21:15.847Z,98459.28
2022-09-28T03:21:47.744Z,98453.91
2022-09-28T03:22:20.056Z,98453.47
2022-09-28T03:23:12.774Z,98451.97
2022-09-28T03:23:44.891Z,98458.53
2022-09-28T03:24:16.978Z,98464.53
2022-09-28T03:24:49.022Z,98458.84
2022-09-28T03:25:21.009Z,98467.16
2022-09-28T03:25:53.081Z,98459.56
2022-09-28T03:26:24.977Z,98458.09
2022-09-28T03:26:57.053Z,98467.88
2022-09-28T03:27:29.401Z,98463.44
2022-09-28T03:28:01.557Z,98466.53
2022-09-28T03:28:36.194Z,98466.41
2022-09-28T03:29:08.610Z,98466.00
2022-09-28T03:29:40.775Z,98463.16
2022-09-28T03:30:13.577Z,98465.91
2022-09-28T03:30:46.558Z,98468.31
2022-09-28T03:31:18.578Z,98466.69
2022-09-28T03:31:50.521Z,98466.69
2022-09-28T03:32:22.780Z,98467.66
2022-09-28T03:32:59.352Z,98464.34
2022-09-28T03:33:32.248Z,98473.81
2022-09-28T03:34:04.270Z,98468.37
2022-09-28T03:34:36.246Z,98471.44
2022-09-28T03:35:09.365Z,98468.75
2022-09-28T03:35:41.443Z,98468.53
2022-09-28T03:36:15.116Z,98466.84
2022-09-28T03:36:47.034Z,98474.31
2022-09-28T03:37:19.045Z,98473.22
2022-09-28T03:37:54.898Z,98471.28
2022-09-28T03:38:27.432Z,98469.16
2022-09-28T03:38:59.677Z,98475.38
2022-09-28T03:39:31.569Z,98474.38
2022-09-28T03:40:04.841Z,98478.91
2022-09-28T03:40:37.793Z,98480.16
2022-09-28T03:41:09.883Z,98471.22
2022-09-28T03:41:42.095Z,98467.03
2022-09-28T03:42:14.031Z,98467.25
2022-09-28T03:42:46.905Z,98468.75
2022-09-28T03:43:18.734Z,98468.59
2022-09-28T03:43:51.028Z,98470.50
2022-09-28T03:44:22.998Z,98473.03
2022-09-28T03:44:55.363Z,98468.22
2022-09-28T03:45:27.260Z,98468.22
2022-09-28T03:46:01.136Z,98468.78
2022-09-28T03:46:33.502Z,98473.75
2022-09-28T03:47:08.610Z,98473.66
2022-09-28T03:47:46.177Z,98473.81
2022-09-28T03:48:21.778Z,98472.69
2022-09-28T03:48:58.661Z,98461.81
2022-09-28T03:49:30.594Z,98475.25
2022-09-28T03:50:02.481Z,98464.41
2022-09-28T03:50:34.320Z,98468.28
2022-09-28T03:51:09.300Z,98466.41
2022-09-28T03:51:41.144Z,98467.66
2022-09-28T03:52:14.446Z,98469.25
2022-09-28T03:52:46.358Z,98466.41
2022-09-28T03:53:18.299Z,98459.75
2022-09-28T03:53:50.177Z,98455.81
2022-09-28T03:54:22.393Z,98461.47
2022-09-28T03:54:54.233Z,98461.97
2022-09-28T03:55:26.129Z,98466.56
2022-09-28T03:56:04.476Z,98465.59
2022-09-28T03:56:36.661Z,98465.44
2022-09-28T03:57:08.664Z,98463.88
2022-09-28T03:57:40.573Z,98457.03
2022-09-28T03:58:12.504Z,98466.84
2022-09-28T03:58:44.940Z,98463.06
2022-09-28T03:59:17.281Z,98458.31
2022-09-28T03:59:49.690Z,98472.97
2022-09-28T04:00:21.920Z,98468.94
2022-09-28T04:00:54.245Z,98473.97
2022-09-28T04:01:26.821Z,98475.38
2022-09-28T04:01:58.790Z,98472.66
2022-09-28T04:02:30.812Z,98472.41
2022-09-28T04:03:02.967Z,98470.50
2022-09-28T04:03:35.239Z,98476.34
2022-09-28T04:04:07.142Z,98475.78
2022-09-28T04:04:39.723Z,98474.59
2022-09-28T04:05:11.624Z,98466.53
2022-09-28T04:05:53.453Z,98483.78
2022-09-28T04:06:25.922Z,98473.81
2022-09-28T04:06:58.764Z,98469.72
2022-09-28T04:07:31.393Z,98471.75
2022-09-28T04:08:03.841Z,98477.00
2022-09-28T04:08:35.711Z,98469.25
2022-09-28T04:09:07.897Z,98465.59
2022-09-28T04:09:39.981Z,98471.63
2022-09-28T04:10:11.994Z,98468.53
2022-09-28T04:10:44.624Z,98469.09
2022-09-28T04:11:16.960Z,98468.03
2022-09-28T04:12:03.462Z,98466.53
2022-09-28T04:12:37.087Z,98463.22
2022-09-28T04:13:10.003Z,98466.56
2022-09-28T04:13:43.789Z,98463.72
2022-09-28T04:14:15.935Z,98464.81
2022-09-28T04:14:47.839Z,98465.75
2022-09-28T04:15:20.205Z,98458.81
2022-09-28T04:15:54.136Z,98464.72
2022-09-28T04:16:26.105Z,98457.84
2022-09-28T04:16:59.232Z,98454.06
2022-09-28T04:17:33.808Z,98456.53
2022-09-28T04:18:12.516Z,98455.97
2022-09-28T04:18:47.810Z,98460.69
2022-09-28T04:19:20.010Z,98460.22
2022-09-28T04:19:52.221Z,98456.53
2022-09-28T04:20:24.276Z,98459.06
2022-09-28T04:21:06.644Z,98462.16
2022-09-28T04:21:39.986Z,98448.06
2022-09-28T04:22:13.260Z,98459.91
2022-09-28T04:22:45.128Z,98456.28
2022-09-28T04:23:17.199Z,98455.25
2022-09-28T04:23:49.299Z,98460.06
2022-09-28T04:24:21.446Z,98455.19
2022-09-28T04:24:53.348Z,98454.22
2022-09-28T04:25:25.268Z,98463.31
2022-09-28T04:25:57.160Z,98458.50
2022-09-28T04:26:29.271Z,98458.50
2022-09-28T04:27:20.300Z,98467.91
2022-09-28T04:28:12.531Z,98460.56
2022-09-28T04:29:06.728Z,98466.19
2022-09-28T04:29:41.713Z,98459.84
2022-09-28T04:30:13.663Z,98468.78
2022-09-28T04:30:47.515Z,98469.09
2022-09-28T04:31:22.674Z,98465.28
2022-09-28T04:31:55.439Z,98466.53
2022-09-28T04:32:27.710Z,98471.28
2022-09-28T04:32:59.878Z,98474.47
2022-09-28T04:33:33.870Z,98479.06
2022-09-28T04:34:05.851Z,98467.19
2022-09-28T04:34:41.963Z,98469.47
2022-09-28T04:35:16.221Z,98465.06
2022-09-28T04:35:48.179Z,98471.13
2022-09-28T04:36:20.062Z,98466.09
2022-09-28T04:36:52.072Z,98453.75
2022-09-28T04:37:24.047Z,98455.09
2022-09-28T04:37:55.907Z,98457.94
2022-09-28T04:38:51.303Z,98455.41
2022-09-28T04:39:20.206Z,98463.41
2022-09-28T04:39:52.325Z,98456.53
2022-09-28T04:40:24.415Z,98463.06
2022-09-28T04:40:57.058Z,98462.94
2022-09-28T04:41:29.063Z,98468.31
2022-09-28T04:42:01.680Z,98472.88
2022-09-28T04:42:34.204Z,98468.53
2022-09-28T04:43:06.021Z,98466.06
2022-09-28T04:43:38.533Z,98468.75
2022-09-28T04:44:10.468Z,98464.88
2022-09-28T04:44:42.324Z,98464.00
2022-09-28T04:45:14.356Z,98463.22
2022-09-28T04:45:47.426Z,98461.47
2022-09-28T04:46:21.762Z,98461.81
2022-09-28T04:46:56.169Z,98460.38
2022-09-28T04:47:30.588Z,98461.44
2022-09-28T04:48:07.162Z,98462.44
2022-09-28T04:48:42.573Z,98464.03
2022-09-28T04:49:14.678Z,98460.22
2022-09-28T04:49:47.040Z,98459.59
2022-09-28T04:50:19.135Z,98459.13
2022-09-28T04:51:10.449Z,98460.53
2022-09-28T04:51:42.304Z,98465.22
2022-09-28T04:52:18.312Z,98463.41
2022-09-28T04:52:52.057Z,98463.56
2022-09-28T04:53:24.883Z,98468.44
2022-09-28T04:53:57.772Z,98466.09
2022-09-28T04:54:31.806Z,98466.09
2022-09-28T04:55:05.008Z,98469.97
2022-09-28T04:55:36.942Z,98469.50
2022-09-28T04:56:12.700Z,98467.03
2022-09-28T04:56:45.178Z,98464.84
2022-09-28T04:57:17.675Z,98470.66
2022-09-28T04:57:49.605Z,98472.09
2022-09-28T04:58:21.575Z,98464.00
2022-09-28T04:58:53.505Z,98467.50
2022-09-28T04:59:26.063Z,98462.44
2022-09-28T04:59:58.027Z,98467.75
2022-09-28T05:00:36.002Z,98468.94
2022-09-28T05:01:12.627Z,98467.66
2022-09-28T05:01:47.563Z,98460.22
2022-09-28T05:02:21.146Z,98459.19
2022-09-28T05:02:54.101Z,98469.47
2022-09-28T05:03:28.225Z,98465.75
2022-09-28T05:04:00.703Z,98467.66
2022-09-28T05:04:35.698Z,98468.31
2022-09-28T05:05:08.565Z,98466.25
2022-09-28T05:05:47.761Z,98473.59
2022-09-28T05:06:22.678Z,98467.03
2022-09-28T05:06:55.103Z,98463.88
2022-09-28T05:07:29.357Z,98459.28
2022-09-28T05:08:05.353Z,98458.72
2022-09-28T05:08:37.401Z,98469.72
2022-09-28T05:09:09.928Z,98468.91
2022-09-28T05:09:42.115Z,98471.16
2022-09-28T05:10:14.058Z,98474.28
2022-09-28T05:10:46.491Z,98470.53
2022-09-28T05:11:19.904Z,98477.69
2022-09-28T05:11:55.230Z,98473.12
2022-09-28T05:12:27.247Z,98471.78
2022-09-28T05:12:59.142Z,98470.44
2022-09-28T05:13:33.130Z,98475.38
2022-09-28T05:14:05.977Z,98482.53
2022-09-28T05:14:37.963Z,98470.97
2022-09-28T05:15:10.904Z,98475.88
2022-09-28T05:15:42.875Z,98477.47
2022-09-28T05:16:16.240Z,98479.19
2022-09-28T05:16:49.521Z,98477.94
2022-09-28T05:17:23.388Z,98474.53
2022-09-28T05:17:57.564Z,98476.03
2022-09-28T05:18:29.862Z,98482.63
2022-09-28T05:19:02.085Z,98478.47
2022-09-28T05:19:35.145Z,98486.38
2022-09-28T05:20:07.696Z,98487.44
2022-09-28T05:20:42.079Z,98481.44
2022-09-28T05:21:15.950Z,98483.31
2022-09-28T05:21:48.845Z,98495.03
2022-09-28T05:22:20.751Z,98488.53
2022-09-28T05:22:52.684Z,98486.00
2022-09-28T05:23:24.624Z,98483.25
2022-09-28T05:23:59.333Z,98483.94
2022-09-28T05:24:31.548Z,98494.06
2022-09-28T05:25:04.320Z,98486.44
2022-09-28T05:25:36.874Z,98488.28
2022-09-28T05:26:10.227Z,98490.44
2022-09-28T05:26:43.307Z,98489.00
2022-09-28T05:27:15.304Z,98488.97
2022-09-28T05:27:57.930Z,98489.44
2022-09-28T05:28:33.536Z,98495.69
2022-09-28T05:29:06.009Z,98490.91
2022-09-28T05:29:39.622Z,98490.75
2022-09-28T05:30:12.649Z,98489.81
2022-09-28T05:30:46.723Z,98484.87
2022-09-28T05:31:20.984Z,98489.56
2022-09-28T05:31:53.239Z,98488.53
2022-09-28T05:32:25.242Z,98485.38
2022-09-28T05:32:57.336Z,98493.53
2022-09-28T05:33:32.083Z,98484.44
2022-09-28T05:34:05.743Z,98488.84
2022-09-28T05:34:37.695Z,98485.34
2022-09-28T05:35:13.896Z,98490.50
2022-09-28T05:35:48.717Z,98486.50
2022-09-28T05:36:24.539Z,98487.41
2022-09-28T05:36:56.432Z,98488.69
2022-09-28T05:37:28.413Z,98482.69
2022-09-28T05:38:05.165Z,98482.22
2022-09-28T05:38:38.176Z,98487.25
2022-09-28T05:39:10.137Z,98480.34
2022-09-28T05:39:42.099Z,98483.06
2022-09-28T05:40:14.226Z,98488.03
2022-09-28T05:40:46.182Z,98484.37
2022-09-28T05:41:18.219Z,98487.16
2022-09-28T05:41:50.725Z,98486.31
2022-09-28T05:42:22.660Z,98487.00
2022-09-28T05:42:59.646Z,98485.47
2022-09-28T05:43:32.477Z,98490.50
2022-09-28T05:44:04.316Z,98482.97
2022-09-28T05:44:38.431Z,98491.44
2022-09-28T05:45:10.858Z,98488.31
2022-09-28T05:45:43.675Z,98486.78
2022-09-28T05:46:16.591Z,98485.16
2022-09-28T05:46:48.494Z,98485.09
2022-09-28T05:47:24.657Z,98487.72
2022-09-28T05:47:56.952Z,98477.88
2022-09-28T05:48:29.789Z,98483.38
2022-09-28T05:49:01.745Z,98484.63
2022-09-28T05:49:33.663Z,98486.31
2022-09-28T05:50:07.580Z,98484.28
2022-09-28T05:50:39.503Z,98477.50
2022-09-28T05:51:12.034Z,98478.34
2022-09-28T05:51:43.935Z,98476.47
2022-09-28T05:52:15.872Z,98475.66
2022-09-28T05:52:50.212Z,98492.37
2022-09-28T05:53:22.510Z,98484.31
2022-09-28T05:53:56.054Z,98479.13
2022-09-28T05:54:28.071Z,98482.53
2022-09-28T05:54:59.901Z,98487.53
2022-09-28T05:55:32.358Z,98483.84
2022-09-28T05:56:04.407Z,98486.72
2022-09-28T05:56:36.785Z,98481.22
2022-09-28T05:57:09.307Z,98482.53
2022-09-28T05:57:41.562Z,98480.66
2022-09-28T05:58:13.946Z,98485.13
2022-09-28T05:58:45.781Z,98470.44
2022-09-28T05:59:17.940Z,98480.44
2022-09-28T05:59:49.867Z,98485.69
2022-09-28T06:00:22.219Z,98484.34
2022-09-28T06:00:56.313Z,98479.56
2022-09-28T06:01:28.262Z,98477.97
2022-09-28T06:02:01.494Z,98485.25
2022-09-28T06:02:33.456Z,98484.44
2022-09-28T06:03:09.465Z,98479.91
2022-09-28T06:03:41.695Z,98483.34
2022-09-28T06:04:14.846Z,98480.19
2022-09-28T06:04:49.496Z,98484.13
2022-09-28T06:05:21.400Z,98480.97
2022-09-28T06:05:53.296Z,98482.03
2022-09-28T06:06:25.534Z,98473.09
2022-09-28T06:06:58.544Z,98471.53
2022-09-28T06:07:31.012Z,98469.75
2022-09-28T06:08:05.258Z,98474.97
2022-09-28T06:08:37.568Z,98471.47
2022-09-28T06:09:10.910Z,98471.72
2022-09-28T06:09:44.566Z,98462.75
2022-09-28T06:10:16.559Z,98462.19
2022-09-28T06:10:48.380Z,98463.44
2022-09-28T06:11:20.414Z,98477.63
2022-09-28T06:11:53.174Z,98465.00
2022-09-28T06:12:25.829Z,98470.25
2022-09-28T06:12:58.837Z,98468.66
2022-09-28T06:13:31.187Z,98473.19
2022-09-28T06:14:03.177Z,98479.16
2022-09-28T06:14:35.475Z,98481.03
2022-09-28T06:15:08.069Z,98475.22
2022-09-28T06:15:42.853Z,98467.53
2022-09-28T06:16:19.228Z,98468.56
2022-09-28T06:16:51.211Z,98472.44
2022-09-28T06:17:23.521Z,98471.38
2022-09-28T06:18:15.484Z,98463.72
2022-09-28T06:18:48.022Z,98467.38
2022-09-28T06:19:20.054Z,98468.63
2022-09-28T06:19:53.227Z,98473.62
2022-09-28T06:20:27.684Z,98472.62
2022-09-28T06:20:59.731Z,98478.06
2022-09-28T06:21:33.001Z,98471.59
2022-09-28T06:22:05.041Z,98477.25
2022-09-28T06:22:38.869Z,98476.69
2022-09-28T06:23:12.593Z,98474.00
2022-09-28T06:23:48.975Z,98479.22
2022-09-28T06:24:21.702Z,98483.41
2022-09-28T06:24:53.847Z,98478.59
2022-09-28T06:25:27.677Z,98480.19
2022-09-28T06:26:00.230Z,98474.81
2022-09-28T06:26:32.180Z,98475.28
2022-09-28T06:27:04.115Z,98477.88
2022-09-28T06:27:36.077Z,98476.06
2022-09-28T06:28:11.257Z,98477.50
2022-09-28T06:28:44.026Z,98471.56
2022-09-28T06:29:19.804Z,98473.09
2022-09-28T06:29:52.835Z,98473.47
2022-09-28T06:30:27.246Z,98480.56
2022-09-28T06:31:01.681Z,98481.06
2022-09-28T06:31:34.743Z,98484.37
2022-09-28T06:32:07.594Z,98476.37
2022-09-28T06:32:40.357Z,98480.22
2022-09-28T06:33:15.047Z,98478.47
2022-09-28T06:33:48.891Z,98485.59
2022-09-28T06:34:21.564Z,98473.03
2022-09-28T06:34:56.357Z,98483.22
2022-09-28T06:35:30.549Z,98476.28
2022-09-28T06:36:02.437Z,98482.78
2022-09-28T06:36:34.339Z,98478.31
2022-09-28T06:37:07.217Z,98479.66
2022-09-28T06:37:39.800Z,98479.44
2022-09-28T06:38:12.366Z,98486.06
2022-09-28T06:38:45.220Z,98483.94
2022-09-28T06:39:18.704Z,98487.06
2022-09-28T06:39:50.619Z,98481.44
2022-09-28T06:40:23.356Z,98490.88
2022-09-28T06:40:57.182Z,98488.16
2022-09-28T06:41:30.439Z,98491.87
2022-09-28T06:42:04.512Z,98486.03
2022-09-28T06:42:58.934Z,98491.37
2022-09-28T06:43:35.020Z,98490.75
2022-09-28T06:44:10.323Z,98491.19
2022-09-28T06:44:48.579Z,98486.69
2022-09-28T06:45:24.555Z,98488.22
2022-09-28T06:45:57.029Z,98496.72
2022-09-28T06:46:29.138Z,98486.97
2022-09-28T06:47:05.062Z,98488.41
2022-09-28T06:47:38.443Z,98484.37
2022-09-28T06:48:11.383Z,98490.91
2022-09-28T06:48:44.283Z,98479.88
2022-09-28T06:49:19.613Z,98489.34
2022-09-28T06:49:55.410Z,98490.94
2022-09-28T06:50:32.374Z,98483.91
2022-09-28T06:51:07.237Z,98493.25
2022-09-28T06:51:40.487Z,98489.88
2022-09-28T06:52:12.624Z,98485.19
2022-09-28T06:52:45.639Z,98487.16
2022-09-28T06:53:17.780Z,98493.59
2022-09-28T06:53:53.830Z,98493.59
2022-09-28T06:54:26.086Z,98493.59
2022-09-28T06:54:58.106Z,98495.00
2022-09-28T06:55:33.569Z,98503.22
2022-09-28T06:56:10.329Z,98485.84
2022-09-28T06:56:42.285Z,98492.44
2022-09-28T06:57:14.305Z,98494.53
2022-09-28T06:57:47.122Z,98494.63
2022-09-28T06:58:21.731Z,98490.13
2022-09-28T06:58:54.720Z,98488.47
2022-09-28T06:59:29.890Z,98496.28
2022-09-28T07:00:03.741Z,98490.44
2022-09-28T07:00:37.679Z,98483.47
2022-09-28T07:01:10.043Z,98493.78
2022-09-28T07:01:44.038Z,98490.38